Time;durP1;ratioP1;P1;durP2;ratioP2;P2;SDS_P1;SDS_P2;PMS_P1;PMS_P2;Temp;Humidity;BMP_temperature;BMP_pressure;BME280_temperature;BME280_humidity;BME280_pressure;Samples;Min_cycle;Max_cycle;Signal;HPM_P1;HPM_P2
2022/09/17 00:01:06;;;;;;;3.13;2.28;;;15.30;99.90;;;;;;6266347;22;20390;-69
2022/09/17 00:03:35;;;;;;;2.42;1.75;;;15.30;99.90;;;;;;6263893;22;20011;-71
2022/09/17 00:06:11;;;;;;;2.38;1.70;;;15.30;99.90;;;;;;6263794;22;20647;-71
2022/09/17 00:08:39;;;;;;;2.13;1.92;;;15.30;99.90;;;;;;6256000;22;20086;-71
2022/09/17 00:11:16;;;;;;;2.20;1.60;;;15.40;99.90;;;;;;6265931;22;20045;-73
2022/09/17 00:13:43;;;;;;;2.50;1.85;;;15.40;99.90;;;;;;6264849;22;20003;-71
2022/09/17 00:16:10;;;;;;;2.45;1.60;;;15.50;99.90;;;;;;6266541;22;20088;-71
2022/09/17 00:18:39;;;;;;;1.65;1.40;;;15.50;99.90;;;;;;6266012;22;20532;-70
2022/09/17 00:21:05;;;;;;;2.65;2.45;;;15.50;99.90;;;;;;6264660;22;19999;-71
2022/09/17 00:23:31;;;;;;;2.00;1.80;;;15.40;99.90;;;;;;6263110;22;20151;-71
2022/09/17 00:25:57;;;;;;;1.60;1.40;;;15.40;99.90;;;;;;6259565;22;20011;-71
2022/09/17 00:28:23;;;;;;;2.45;2.13;;;15.30;99.90;;;;;;6230685;22;20024;-70
2022/09/17 00:30:49;;;;;;;2.30;1.80;;;15.30;99.90;;;;;;6264300;22;20007;-71
2022/09/17 00:33:16;;;;;;;3.50;2.53;;;15.30;99.90;;;;;;6231575;22;20015;-71
2022/09/17 00:35:43;;;;;;;2.50;2.20;;;15.30;99.90;;;;;;6262521;22;20032;-71
2022/09/17 00:38:09;;;;;;;3.33;2.20;;;15.40;99.90;;;;;;6260145;22;20000;-71
2022/09/17 00:40:36;;;;;;;4.25;2.40;;;15.40;99.90;;;;;;6264139;22;20004;-72
2022/09/17 00:43:02;;;;;;;4.25;2.15;;;15.40;99.90;;;;;;6263964;22;20027;-72
2022/09/17 00:45:30;;;;;;;3.35;2.38;;;15.50;99.90;;;;;;6266711;22;20153;-72
2022/09/17 00:48:00;;;;;;;3.03;2.33;;;15.50;99.90;;;;;;6264986;22;20066;-72
2022/09/17 00:50:28;;;;;;;2.67;2.35;;;15.50;99.90;;;;;;6267204;22;20336;-72
2022/09/17 00:53:04;;;;;;;5.22;2.20;;;15.50;99.90;;;;;;6266230;22;20026;-72
2022/09/17 00:55:38;;;;;;;2.55;2.33;;;15.60;99.90;;;;;;6263842;22;20749;-72
2022/09/17 00:58:08;;;;;;;33.63;4.20;;;15.50;99.90;;;;;;6264661;22;20046;-71
2022/09/17 01:00:34;;;;;;;5.55;2.72;;;15.60;99.90;;;;;;6264912;22;20523;-72
2022/09/17 01:02:59;;;;;;;2.50;2.20;;;15.70;99.90;;;;;;6264436;22;20053;-71
2022/09/17 01:06:09;;;;;;;2.15;2.00;;;15.70;99.90;;;;;;6264378;22;20007;-71
2022/09/17 01:09:05;;;;;;;3.08;1.90;;;15.60;99.90;;;;;;6109182;23;20014;-72
2022/09/17 01:12:12;;;;;;;2.65;2.13;;;15.50;99.90;;;;;;6263812;22;20015;-72
2022/09/17 01:14:43;;;;;;;2.92;1.80;;;15.40;99.90;;;;;;6264809;22;20480;-72
2022/09/17 01:17:44;;;;;;;3.33;2.08;;;15.40;99.90;;;;;;6265206;22;20433;-72
2022/09/17 01:20:28;;;;;;;2.00;1.90;;;15.40;99.90;;;;;;6260958;22;20373;-72
2022/09/17 01:23:42;;;;;;;4.05;1.77;;;15.50;99.90;;;;;;6267127;22;19995;-72
2022/09/17 01:26:45;;;;;;;1.70;1.58;;;15.40;99.90;;;;;;6267412;22;20427;-71
2022/09/17 01:29:13;;;;;;;3.25;1.73;;;15.30;99.90;;;;;;6275962;22;20079;-71
2022/09/17 01:31:42;;;;;;;3.28;1.80;;;15.30;99.90;;;;;;6278774;22;19996;-71
2022/09/17 01:34:19;;;;;;;4.60;1.60;;;15.30;99.90;;;;;;6277031;22;20071;-72
2022/09/17 01:37:11;;;;;;;13.98;2.08;;;15.20;99.90;;;;;;6277492;22;20205;-72
2022/09/17 01:40:10;;;;;;;2.38;1.35;;;15.20;99.90;;;;;;6270273;22;20007;-70
2022/09/17 01:42:53;;;;;;;3.05;1.92;;;15.20;99.90;;;;;;6265895;22;20014;-72
2022/09/17 01:45:31;;;;;;;1.70;1.60;;;15.20;99.90;;;;;;6277612;22;20004;-71
2022/09/17 01:48:13;;;;;;;1.55;1.30;;;15.20;99.90;;;;;;6276674;22;20003;-71
2022/09/17 01:50:56;;;;;;;1.80;1.60;;;15.20;99.90;;;;;;6277773;22;20000;-72
2022/09/17 01:53:34;;;;;;;3.08;1.70;;;15.10;99.90;;;;;;6276546;22;20010;-72
2022/09/17 01:56:01;;;;;;;2.30;1.83;;;15.10;99.90;;;;;;6277690;22;20023;-71
2022/09/17 01:58:35;;;;;;;4.72;1.92;;;15.10;99.90;;;;;;6276966;22;20007;-71
2022/09/17 02:01:05;;;;;;;4.35;1.45;;;15.10;99.90;;;;;;6272059;22;20011;-71
2022/09/17 02:03:40;;;;;;;2.03;1.63;;;15.10;99.90;;;;;;6271869;22;20467;-69
2022/09/17 02:06:22;;;;;;;1.33;1.23;;;15.20;99.90;;;;;;6273584;22;19999;-69
2022/09/17 02:08:56;;;;;;;3.60;1.67;;;15.30;99.90;;;;;;6272081;22;20023;-70
2022/09/17 02:11:22;;;;;;;2.38;1.38;;;15.30;99.90;;;;;;6271283;22;20011;-69
2022/09/17 02:14:20;;;;;;;2.30;1.40;;;15.30;99.90;;;;;;6272573;22;20008;-69
2022/09/17 02:16:55;;;;;;;2.95;1.45;;;15.30;99.90;;;;;;6274229;22;20018;-69
2022/09/17 02:19:26;;;;;;;5.55;2.00;;;15.20;99.90;;;;;;6273772;22;20027;-70
2022/09/17 02:21:57;;;;;;;1.95;1.20;;;15.20;99.90;;;;;;6272736;22;20004;-70
2022/09/17 02:24:46;;;;;;;2.08;1.50;;;15.20;99.90;;;;;;6273510;22;20066;-70
2022/09/17 02:27:34;;;;;;;3.45;1.67;;;15.20;99.90;;;;;;6260713;22;20023;-70
2022/09/17 02:30:00;;;;;;;1.70;1.60;;;15.10;99.90;;;;;;6269080;22;20121;-70
2022/09/17 02:32:26;;;;;;;2.05;1.25;;;15.10;99.90;;;;;;6266115;22;20011;-70
2022/09/17 02:34:52;;;;;;;3.42;1.77;;;15.10;99.90;;;;;;6262670;22;20141;-71
2022/09/17 02:37:18;;;;;;;1.60;1.40;;;15.10;99.90;;;;;;6260616;22;20739;-70
2022/09/17 02:39:43;;;;;;;1.70;1.20;;;15.10;99.90;;;;;;6260824;22;20004;-71
2022/09/17 02:42:19;;;;;;;3.50;1.30;;;15.00;99.90;;;;;;6260589;22;20253;-69
2022/09/17 02:45:12;;;;;;;4.40;1.42;;;14.80;99.90;;;;;;6260161;22;20455;-68
2022/09/17 02:47:56;;;;;;;3.05;1.40;;;14.70;99.90;;;;;;6260200;22;20011;-69
2022/09/17 02:50:55;;;;;;;4.18;1.30;;;14.60;99.90;;;;;;6265087;22;20011;-68
2022/09/17 02:53:55;;;;;;;3.53;1.73;;;14.50;99.90;;;;;;6264072;22;20089;-68
2022/09/17 02:57:13;;;;;;;1.80;1.30;;;14.30;99.90;;;;;;6266436;22;20090;-68
2022/09/17 03:00:04;;;;;;;2.05;1.40;;;14.40;99.90;;;;;;6140026;23;20098;-69
2022/09/17 03:02:42;;;;;;;7.32;1.88;;;14.40;99.90;;;;;;6131554;23;20256;-69
2022/09/17 03:05:09;;;;;;;2.83;1.55;;;14.40;99.90;;;;;;6225533;22;20091;-68
2022/09/17 03:07:36;;;;;;;1.60;1.50;;;14.40;99.90;;;;;;6239534;22;20006;-69
2022/09/17 03:10:03;;;;;;;2.47;1.33;;;14.40;99.90;;;;;;6261573;22;20102;-69
2022/09/17 03:12:29;;;;;;;2.30;1.38;;;14.40;99.90;;;;;;6263220;22;19992;-69
2022/09/17 03:14:54;;;;;;;1.67;1.00;;;14.40;99.90;;;;;;6238656;22;20023;-68
2022/09/17 03:17:20;;;;;;;1.42;1.10;;;14.40;99.90;;;;;;6239173;22;19995;-69
2022/09/17 03:19:45;;;;;;;1.60;1.10;;;14.40;99.90;;;;;;6265911;22;20003;-68
2022/09/17 03:22:11;;;;;;;1.77;1.30;;;14.40;99.90;;;;;;6264126;22;19999;-68
2022/09/17 03:24:37;;;;;;;3.65;1.60;;;14.40;99.90;;;;;;6264183;22;20076;-68
2022/09/17 03:27:02;;;;;;;2.95;1.40;;;14.40;99.90;;;;;;6262839;22;20445;-68
2022/09/17 03:29:28;;;;;;;2.40;1.30;;;14.40;99.90;;;;;;6265942;22;20083;-68
2022/09/17 03:31:54;;;;;;;1.77;1.33;;;14.40;99.90;;;;;;6262985;22;20007;-68
2022/09/17 03:34:20;;;;;;;2.33;1.70;;;14.40;99.90;;;;;;6239411;22;20038;-69
2022/09/17 03:36:45;;;;;;;1.70;1.30;;;14.40;99.90;;;;;;6265332;22;20000;-69
2022/09/17 03:39:11;;;;;;;3.05;1.27;;;14.30;99.90;;;;;;6268682;22;20515;-68
2022/09/17 03:41:37;;;;;;;2.28;1.30;;;14.30;99.90;;;;;;6259997;22;20000;-68
2022/09/17 03:44:03;;;;;;;2.40;1.20;;;14.30;99.90;;;;;;6265897;22;20081;-68
2022/09/17 03:46:28;;;;;;;3.45;1.52;;;14.30;99.90;;;;;;6265091;22;19995;-68
2022/09/17 03:48:54;;;;;;;16.35;2.10;;;14.30;99.90;;;;;;6239704;22;20030;-69
2022/09/17 03:51:19;;;;;;;2.55;1.67;;;14.30;99.90;;;;;;6265048;22;20306;-67
2022/09/17 03:53:45;;;;;;;4.28;1.23;;;14.30;99.90;;;;;;6265427;22;20030;-68
2022/09/17 03:56:10;;;;;;;8.32;1.65;;;14.30;99.90;;;;;;6261816;22;20083;-69
2022/09/17 03:58:37;;;;;;;4.97;1.50;;;14.30;99.90;;;;;;6266727;22;19999;-68
2022/09/17 04:01:03;;;;;;;1.42;1.33;;;14.30;99.90;;;;;;6264487;22;20008;-68
2022/09/17 04:03:29;;;;;;;1.77;1.27;;;14.30;99.90;;;;;;6264320;22;20010;-68
2022/09/17 04:05:55;;;;;;;1.65;1.35;;;14.30;99.90;;;;;;6264814;22;20007;-68
2022/09/17 04:08:20;;;;;;;3.65;1.60;;;14.20;99.90;;;;;;6264396;22;20073;-68
2022/09/17 04:10:47;;;;;;;2.40;1.60;;;14.10;99.90;;;;;;6265363;22;20031;-68
2022/09/17 04:13:14;;;;;;;2.65;1.85;;;14.00;99.90;;;;;;6257398;22;20010;-68
2022/09/17 04:15:40;;;;;;;2.47;1.50;;;13.90;99.90;;;;;;6266174;22;20019;-66
2022/09/17 04:18:06;;;;;;;5.28;1.90;;;13.90;99.90;;;;;;6265968;22;20333;-67
2022/09/17 04:20:32;;;;;;;1.27;1.17;;;13.80;99.90;;;;;;6266286;22;20004;-66
2022/09/17 04:22:58;;;;;;;2.10;1.50;;;13.80;99.90;;;;;;6263018;22;20749;-66
2022/09/17 04:25:23;;;;;;;5.43;1.63;;;13.80;99.90;;;;;;6265657;22;20414;-66
2022/09/17 04:27:49;;;;;;;2.92;1.67;;;13.80;99.90;;;;;;6261071;22;20093;-66
2022/09/17 04:30:15;;;;;;;1.63;1.45;;;13.80;99.90;;;;;;6265366;22;20003;-67
2022/09/17 04:32:43;;;;;;;4.32;1.70;;;13.90;99.90;;;;;;6262343;22;20380;-67
2022/09/17 04:35:09;;;;;;;1.92;1.30;;;13.90;99.90;;;;;;6264355;22;20069;-67
2022/09/17 04:37:35;;;;;;;1.55;1.20;;;13.90;99.90;;;;;;6264059;22;19999;-66
2022/09/17 04:40:01;;;;;;;2.70;1.30;;;13.90;99.90;;;;;;6266999;22;20019;-67
2022/09/17 04:42:26;;;;;;;2.03;1.13;;;14.00;99.90;;;;;;6260249;22;20491;-67
2022/09/17 04:44:52;;;;;;;3.20;1.50;;;13.90;99.90;;;;;;6265291;22;20007;-67
2022/09/17 04:47:17;;;;;;;3.60;1.58;;;13.90;99.90;;;;;;6265737;22;20000;-66
2022/09/17 04:49:43;;;;;;;2.85;1.40;;;13.90;99.90;;;;;;6266595;22;20007;-66
2022/09/17 04:52:09;;;;;;;1.80;1.42;;;14.00;99.90;;;;;;6264664;22;20035;-67
2022/09/17 04:54:34;;;;;;;3.38;1.58;;;14.00;99.90;;;;;;6264526;22;20455;-66
2022/09/17 04:57:00;;;;;;;3.42;1.55;;;14.10;99.90;;;;;;6268654;22;20007;-68
2022/09/17 04:59:26;;;;;;;2.60;1.90;;;14.10;99.90;;;;;;6266690;22;20089;-68
2022/09/17 05:01:51;;;;;;;1.48;1.25;;;14.10;99.90;;;;;;6266531;22;19999;-68
2022/09/17 05:04:17;;;;;;;2.20;1.40;;;14.20;99.90;;;;;;6265050;22;20003;-68
2022/09/17 05:06:42;;;;;;;4.40;1.50;;;14.10;99.90;;;;;;6267661;22;20000;-68
2022/09/17 05:09:08;;;;;;;1.75;1.42;;;14.10;99.90;;;;;;6267388;22;20007;-68
2022/09/17 05:11:34;;;;;;;2.58;1.42;;;14.00;99.90;;;;;;6265891;22;20010;-68
2022/09/17 05:14:00;;;;;;;2.97;1.70;;;13.90;99.90;;;;;;6260350;22;20008;-68
2022/09/17 05:16:25;;;;;;;1.67;1.33;;;13.80;99.90;;;;;;6266149;22;20057;-68
2022/09/17 05:18:51;;;;;;;1.67;1.48;;;13.80;99.90;;;;;;6266893;22;20008;-68
2022/09/17 05:21:20;;;;;;;3.08;1.40;;;13.80;99.90;;;;;;6268777;22;20086;-68
2022/09/17 05:23:46;;;;;;;3.22;1.70;;;13.90;99.90;;;;;;6263374;22;20008;-68
2022/09/17 05:26:12;;;;;;;2.35;1.20;;;13.80;99.90;;;;;;6263190;22;20046;-68
2022/09/17 05:28:38;;;;;;;2.50;1.45;;;13.80;99.90;;;;;;6267202;22;20534;-68
2022/09/17 05:31:04;;;;;;;3.88;2.13;;;13.80;99.90;;;;;;6267043;22;20053;-68
2022/09/17 05:33:30;;;;;;;2.47;1.52;;;13.80;99.90;;;;;;6269156;22;20000;-68
2022/09/17 05:35:55;;;;;;;3.28;1.65;;;13.90;99.90;;;;;;6265333;22;20007;-68
2022/09/17 05:38:21;;;;;;;3.17;1.25;;;13.90;99.90;;;;;;6265754;22;20632;-68
2022/09/17 05:40:47;;;;;;;1.75;1.42;;;13.90;99.90;;;;;;6267176;22;20068;-68
2022/09/17 05:43:14;;;;;;;1.75;1.40;;;14.00;99.90;;;;;;6233724;22;20405;-68
2022/09/17 05:45:40;;;;;;;1.92;1.30;;;14.10;99.90;;;;;;6264289;22;20000;-68
2022/09/17 05:48:08;;;;;;;1.40;1.30;;;14.10;99.90;;;;;;6211394;22;20003;-68
2022/09/17 05:50:34;;;;;;;2.88;1.20;;;14.20;99.90;;;;;;6266495;22;20000;-68
2022/09/17 05:53:05;;;;;;;1.67;1.23;;;14.20;99.90;;;;;;6240305;22;20447;-67
2022/09/17 05:55:31;;;;;;;1.77;1.38;;;14.30;99.90;;;;;;6264779;22;20123;-67
2022/09/17 05:57:57;;;;;;;2.28;1.27;;;14.30;99.90;;;;;;6266858;22;20042;-67
2022/09/17 06:00:22;;;;;;;2.50;1.80;;;14.40;99.90;;;;;;6266932;22;20333;-67
2022/09/17 06:02:56;;;;;;;3.60;1.15;;;14.50;99.90;;;;;;6265351;22;20078;-67
2022/09/17 06:05:23;;;;;;;1.88;1.23;;;14.60;99.90;;;;;;6264159;22;20006;-67
2022/09/17 06:07:48;;;;;;;2.67;1.20;;;14.60;99.90;;;;;;6265459;22;20011;-68
2022/09/17 06:10:14;;;;;;;1.42;1.13;;;14.70;99.90;;;;;;6266312;22;20340;-68
2022/09/17 06:12:40;;;;;;;1.55;1.20;;;14.70;99.90;;;;;;6258302;22;20041;-67
2022/09/17 06:15:06;;;;;;;3.60;1.52;;;14.70;99.90;;;;;;6255300;22;20015;-67
2022/09/17 06:17:35;;;;;;;4.68;1.40;;;14.70;99.90;;;;;;6261866;22;20345;-67
2022/09/17 06:20:02;;;;;;;4.32;1.35;;;14.80;99.90;;;;;;6264893;22;20008;-68
2022/09/17 06:22:28;;;;;;;1.30;1.15;;;14.80;99.90;;;;;;6264912;22;20000;-68
2022/09/17 06:24:53;;;;;;;2.30;0.98;;;14.80;99.90;;;;;;6240404;22;20012;-68
2022/09/17 06:27:19;;;;;;;2.58;1.05;;;14.70;99.90;;;;;;6263152;22;20015;-67
2022/09/17 06:29:44;;;;;;;3.80;1.23;;;14.60;99.90;;;;;;6263956;22;20101;-67
2022/09/17 06:32:11;;;;;;;1.00;0.90;;;14.70;99.90;;;;;;6239191;22;20000;-67
2022/09/17 06:34:38;;;;;;;1.60;1.10;;;14.60;99.90;;;;;;6263778;22;20043;-65
2022/09/17 06:37:04;;;;;;;2.30;1.08;;;14.70;99.90;;;;;;6266810;22;20004;-68
2022/09/17 06:39:29;;;;;;;3.92;1.20;;;14.60;99.90;;;;;;6267818;22;20009;-66
2022/09/17 06:41:55;;;;;;;4.40;1.58;;;14.60;99.90;;;;;;6263756;22;20011;-66
2022/09/17 06:44:20;;;;;;;3.35;1.15;;;14.50;99.90;;;;;;6262204;22;20263;-68
2022/09/17 06:46:49;;;;;;;2.45;1.20;;;14.50;99.90;;;;;;6262165;22;20000;-70
2022/09/17 06:49:16;;;;;;;3.50;1.33;;;14.50;99.90;;;;;;6266253;22;20011;-69
2022/09/17 06:51:42;;;;;;;2.65;1.30;;;14.50;99.90;;;;;;6267252;22;20004;-69
2022/09/17 06:54:08;;;;;;;1.00;1.00;;;14.40;99.90;;;;;;6265799;22;20000;-67
2022/09/17 06:56:34;;;;;;;2.47;1.15;;;14.40;99.90;;;;;;6261809;22;20018;-68
2022/09/17 06:59:00;;;;;;;1.98;1.30;;;14.40;99.90;;;;;;6265701;22;20007;-69
2022/09/17 07:01:25;;;;;;;1.52;0.90;;;14.50;99.90;;;;;;6265022;22;20118;-70
2022/09/17 07:03:51;;;;;;;6.28;1.10;;;14.50;99.90;;;;;;6263209;22;20043;-70
2022/09/17 07:06:17;;;;;;;1.58;1.00;;;14.50;99.90;;;;;;6264825;22;20027;-69
2022/09/17 07:08:42;;;;;;;4.75;1.17;;;14.40;99.90;;;;;;6239057;22;20033;-69
2022/09/17 07:11:08;;;;;;;1.25;0.95;;;14.50;99.90;;;;;;6263689;22;20004;-69
2022/09/17 07:13:34;;;;;;;1.25;0.88;;;14.50;99.90;;;;;;6264025;22;20232;-70
2022/09/17 07:16:02;;;;;;;2.95;1.23;;;14.50;99.90;;;;;;6260526;22;20004;-71
2022/09/17 07:18:28;;;;;;;1.20;1.10;;;14.50;99.90;;;;;;6263690;22;20003;-70
2022/09/17 07:20:55;;;;;;;1.27;1.10;;;14.60;99.90;;;;;;6265131;22;20049;-71
2022/09/17 07:23:23;;;;;;;1.33;0.90;;;14.60;99.90;;;;;;6262632;22;20084;-71
2022/09/17 07:26:03;;;;;;;2.55;0.90;;;14.70;99.90;;;;;;6257893;22;20004;-70
2022/09/17 07:28:29;;;;;;;1.67;1.40;;;14.70;99.90;;;;;;6260313;22;20020;-71
2022/09/17 07:30:55;;;;;;;3.03;1.10;;;14.70;99.90;;;;;;6263595;22;20037;-71
2022/09/17 07:33:24;;;;;;;2.08;1.10;;;14.70;99.90;;;;;;6259799;22;20008;-70
2022/09/17 07:35:57;;;;;;;1.20;1.05;;;14.80;99.90;;;;;;6261126;22;20007;-69
2022/09/17 07:38:23;;;;;;;1.25;1.00;;;14.90;99.90;;;;;;6264486;22;20011;-69
2022/09/17 07:40:57;;;;;;;1.70;1.00;;;14.90;99.90;;;;;;6261011;22;20085;-69
2022/09/17 07:43:23;;;;;;;1.33;1.05;;;15.10;99.90;;;;;;6261378;22;20246;-70
2022/09/17 07:45:49;;;;;;;2.60;1.10;;;15.20;99.90;;;;;;6258133;22;20007;-69
2022/09/17 07:48:15;;;;;;;1.65;0.63;;;15.30;99.90;;;;;;6260292;22;20004;-68
2022/09/17 07:50:40;;;;;;;1.27;0.60;;;15.30;99.90;;;;;;6258610;22;20401;-68
2022/09/17 07:53:06;;;;;;;0.73;0.50;;;15.30;99.90;;;;;;6260673;22;20008;-68
2022/09/17 07:55:31;;;;;;;0.57;0.57;;;15.30;99.90;;;;;;6259798;22;20011;-68
2022/09/17 07:57:57;;;;;;;1.85;0.40;;;15.30;99.90;;;;;;6263602;22;19999;-68
2022/09/17 08:00:23;;;;;;;0.40;0.40;;;15.40;99.90;;;;;;6257794;22;20776;-69
2022/09/17 08:02:55;;;;;;;1.02;0.40;;;15.40;99.90;;;;;;6250500;22;20062;-68
2022/09/17 08:05:22;;;;;;;0.65;0.45;;;15.50;99.90;;;;;;6259382;22;20433;-69
2022/09/17 08:07:51;;;;;;;0.40;0.40;;;15.50;99.90;;;;;;6251506;22;20090;-69
2022/09/17 08:10:21;;;;;;;0.60;0.50;;;15.50;99.90;;;;;;6261896;22;20255;-69
2022/09/17 08:12:54;;;;;;;0.40;0.40;;;15.50;99.90;;;;;;6256537;22;20000;-68
2022/09/17 08:15:20;;;;;;;0.88;0.40;;;15.60;99.90;;;;;;6263227;22;20454;-69
2022/09/17 08:17:46;;;;;;;0.70;0.50;;;15.60;99.90;;;;;;6257304;22;20004;-69
2022/09/17 08:20:13;;;;;;;2.35;0.60;;;15.60;99.90;;;;;;6261113;22;20073;-67
2022/09/17 08:22:39;;;;;;;1.13;0.60;;;15.60;99.90;;;;;;6258283;22;20007;-70
2022/09/17 08:25:06;;;;;;;3.92;0.60;;;15.70;99.90;;;;;;6262179;22;19999;-69
2022/09/17 08:27:32;;;;;;;2.30;0.80;;;15.60;99.90;;;;;;6261487;22;20024;-70
2022/09/17 08:29:57;;;;;;;2.97;0.60;;;15.60;99.90;;;;;;6253323;22;19995;-70
2022/09/17 08:32:23;;;;;;;1.38;0.57;;;15.50;99.90;;;;;;6261858;22;20029;-69
2022/09/17 08:34:49;;;;;;;1.45;0.80;;;15.40;99.90;;;;;;6260852;22;20085;-69
2022/09/17 08:37:15;;;;;;;2.05;0.70;;;15.40;99.90;;;;;;6263301;22;20491;-68
2022/09/17 08:39:40;;;;;;;1.95;0.80;;;15.30;99.90;;;;;;6263566;22;20014;-71
2022/09/17 08:42:31;;;;;;;3.25;0.93;;;15.30;99.90;;;;;;6260847;22;19999;-71
2022/09/17 08:44:58;;;;;;;2.63;0.80;;;15.20;99.90;;;;;;6242448;22;20083;-69
2022/09/17 08:47:37;;;;;;;1.02;0.98;;;15.10;99.90;;;;;;6258454;22;20143;-70
2022/09/17 08:50:06;;;;;;;1.55;1.00;;;15.10;99.90;;;;;;6262126;22;19999;-70
2022/09/17 08:53:00;;;;;;;2.53;0.90;;;15.00;99.90;;;;;;6261780;22;20003;-71
2022/09/17 08:55:39;;;;;;;2.03;1.15;;;15.00;99.90;;;;;;6264050;22;20015;-73
2022/09/17 08:58:16;;;;;;;3.47;0.80;;;14.90;99.90;;;;;;6261830;22;20011;-73
2022/09/17 09:00:54;;;;;;;1.30;0.95;;;14.90;99.90;;;;;;6259911;22;20380;-73
2022/09/17 09:03:59;;;;;;;1.77;1.20;;;14.80;99.90;;;;;;6229767;22;20445;-75
2022/09/17 09:06:31;;;;;;;1.80;1.20;;;14.80;99.90;;;;;;6259169;22;20012;-74
2022/09/17 09:09:02;;;;;;;1.50;1.10;;;14.90;99.90;;;;;;6257381;22;20004;-74
2022/09/17 09:11:30;;;;;;;1.60;0.90;;;14.90;99.90;;;;;;6258005;22;20007;-74
2022/09/17 09:14:13;;;;;;;1.27;1.02;;;14.90;99.90;;;;;;6262094;22;20011;-74
2022/09/17 09:16:43;;;;;;;1.33;1.23;;;14.80;99.90;;;;;;6255839;22;20008;-75
2022/09/17 09:19:20;;;;;;;1.75;1.17;;;14.90;99.90;;;;;;6256336;22;20012;-75
2022/09/17 09:21:52;;;;;;;13.75;2.83;;;14.90;99.90;;;;;;6264546;22;20007;-71
2022/09/17 09:24:25;;;;;;;5.35;1.25;;;15.00;99.90;;;;;;6260821;22;19996;-75
2022/09/17 09:27:36;;;;;;;7.35;1.10;;;14.90;99.90;;;;;;6264958;22;20441;-81
2022/09/17 09:30:10;;;;;;;4.57;1.30;;;15.00;99.90;;;;;;6213594;22;20757;-77
2022/09/17 09:32:38;;;;;;;1.08;0.70;;;15.00;99.90;;;;;;6261750;22;20627;-75
2022/09/17 09:35:26;;;;;;;3.00;1.00;;;15.00;99.90;;;;;;6262377;22;20087;-73
2022/09/17 09:38:03;;;;;;;4.88;0.90;;;15.00;99.90;;;;;;6258733;22;20012;-75
2022/09/17 09:40:44;;;;;;;4.47;1.00;;;15.00;99.90;;;;;;6262702;22;19996;-70
2022/09/17 09:43:21;;;;;;;3.55;0.95;;;15.00;99.90;;;;;;6265089;22;20395;-81
2022/09/17 09:46:09;;;;;;;2.00;0.93;;;15.00;99.90;;;;;;6259097;22;20008;-74
2022/09/17 09:49:16;;;;;;;2.45;1.45;;;15.00;99.90;;;;;;6200552;22;20011;-74
2022/09/17 09:52:03;;;;;;;3.30;1.20;;;15.00;99.90;;;;;;6214427;22;20218;-69
2022/09/17 09:54:52;;;;;;;2.80;0.90;;;15.00;99.90;;;;;;6259260;22;20011;-68
2022/09/17 09:57:30;;;;;;;8.65;1.40;;;15.00;99.90;;;;;;6265236;22;20457;-72
2022/09/17 10:00:24;;;;;;;7.15;1.35;;;15.00;99.90;;;;;;6264619;22;20435;-70
2022/09/17 10:02:54;;;;;;;13.63;2.38;;;15.00;99.90;;;;;;6264909;22;20035;-75
2022/09/17 10:05:19;;;;;;;26.67;2.13;;;15.00;99.90;;;;;;6264129;22;19999;-74
2022/09/17 10:07:45;;;;;;;3.17;1.33;;;15.00;99.90;;;;;;6261510;22;20534;-73
2022/09/17 10:10:11;;;;;;;1.75;1.10;;;15.00;99.90;;;;;;6262449;22;20057;-73
2022/09/17 10:12:37;;;;;;;1.63;1.05;;;15.00;99.90;;;;;;6264256;22;20003;-72
2022/09/17 10:15:24;;;;;;;1.42;1.00;;;15.00;99.90;;;;;;6265300;22;20011;-72
2022/09/17 10:18:23;;;;;;;1.38;0.98;;;15.00;99.90;;;;;;6256287;22;20010;-72
2022/09/17 10:21:00;;;;;;;2.33;1.05;;;15.10;99.90;;;;;;6263292;22;20000;-73
2022/09/17 10:23:32;;;;;;;1.45;1.05;;;15.10;99.90;;;;;;6254187;22;20003;-72
2022/09/17 10:25:58;;;;;;;2.38;0.90;;;15.10;99.90;;;;;;6262465;22;20050;-68
2022/09/17 10:28:32;;;;;;;1.75;1.02;;;15.00;99.90;;;;;;6259565;22;20069;-69
2022/09/17 10:31:04;;;;;;;1.60;1.10;;;15.10;99.90;;;;;;6263683;22;20003;-68
2022/09/17 10:33:31;;;;;;;1.35;1.10;;;15.10;99.90;;;;;;6263418;22;20007;-68
2022/09/17 10:36:05;;;;;;;2.63;1.10;;;15.10;99.90;;;;;;6263982;22;20030;-68
2022/09/17 10:38:32;;;;;;;1.77;0.90;;;15.10;99.90;;;;;;6266171;22;20027;-77
2022/09/17 10:41:18;;;;;;;0.98;0.65;;;15.20;99.90;;;;;;6261957;22;20522;-75
2022/09/17 10:43:44;;;;;;;1.95;1.00;;;15.20;99.90;;;;;;6263078;22;20003;-78
2022/09/17 10:46:17;;;;;;;2.13;0.85;;;15.30;99.90;;;;;;6264300;22;20090;-78
2022/09/17 10:49:10;;;;;;;1.77;1.25;;;15.30;99.90;;;;;;6266208;22;20027;-76
2022/09/17 10:51:36;;;;;;;1.90;1.20;;;15.30;99.90;;;;;;6236661;22;20020;-78
2022/09/17 10:54:17;;;;;;;3.58;1.10;;;15.40;99.90;;;;;;6260578;22;20011;-76
2022/09/17 10:56:53;;;;;;;1.00;0.82;;;15.30;99.90;;;;;;6265977;22;20014;-77
2022/09/17 10:59:28;;;;;;;1.45;0.98;;;15.20;99.90;;;;;;6266080;22;20053;-77
2022/09/17 11:02:00;;;;;;;1.58;0.90;;;15.20;99.90;;;;;;6265451;22;20026;-78
2022/09/17 11:04:30;;;;;;;2.22;0.95;;;15.20;99.90;;;;;;6238536;22;20004;-77
2022/09/17 11:07:08;;;;;;;1.33;0.90;;;15.20;99.90;;;;;;6264959;22;20447;-79
2022/09/17 11:10:08;;;;;;;1.63;0.82;;;15.20;99.90;;;;;;6268773;22;20074;-76
2022/09/17 11:12:44;;;;;;;2.55;1.00;;;15.30;99.90;;;;;;6267455;22;20012;-78
2022/09/17 11:15:26;;;;;;;2.75;0.80;;;15.20;99.90;;;;;;6263316;22;20073;-77
2022/09/17 11:18:21;;;;;;;1.85;0.90;;;15.20;99.90;;;;;;6264447;22;19999;-79
2022/09/17 11:20:58;;;;;;;3.13;0.80;;;15.20;99.90;;;;;;6254687;22;20008;-79
2022/09/17 11:24:02;;;;;;;1.88;0.90;;;15.30;99.90;;;;;;6261783;22;20019;-79
2022/09/17 11:26:46;;;;;;;1.98;0.82;;;15.40;99.90;;;;;;6265099;22;20004;-79
2022/09/17 11:29:25;;;;;;;2.47;0.70;;;15.40;99.90;;;;;;6265615;22;20011;-79
2022/09/17 11:32:02;;;;;;;2.28;0.80;;;15.50;99.90;;;;;;6265551;22;20007;-79
2022/09/17 11:34:52;;;;;;;1.30;0.70;;;15.50;99.90;;;;;;6264748;22;20058;-79
2022/09/17 11:37:42;;;;;;;2.55;0.60;;;15.60;99.90;;;;;;6264342;22;20010;-73
2022/09/17 11:40:08;;;;;;;1.10;0.68;;;15.70;99.90;;;;;;6265288;22;20007;-79
2022/09/17 11:42:46;;;;;;;2.30;0.95;;;15.70;99.90;;;;;;6264298;22;20054;-80
2022/09/17 11:45:31;;;;;;;1.83;0.98;;;15.80;99.90;;;;;;6260601;22;20090;-78
2022/09/17 11:48:13;;;;;;;2.58;0.90;;;15.80;99.90;;;;;;6263221;22;20008;-77
2022/09/17 11:50:41;;;;;;;1.55;0.77;;;15.70;99.90;;;;;;6264178;22;20080;-78
2022/09/17 11:53:34;;;;;;;3.00;1.83;;;15.70;99.90;;;;;;6262268;22;20050;-79
2022/09/17 11:56:04;;;;;;;24.85;5.10;;;15.70;99.90;;;;;;6263883;22;20015;-75
2022/09/17 11:59:07;;;;;;;2.22;1.25;;;15.80;99.90;;;;;;6264374;22;20705;-79
2022/09/17 12:01:43;;;;;;;0.82;0.60;;;16.00;99.90;;;;;;6264476;22;20003;-79
2022/09/17 12:04:30;;;;;;;7.68;2.47;;;16.00;99.90;;;;;;6263780;22;20003;-80
2022/09/17 12:07:15;;;;;;;3.97;3.50;;;16.10;99.90;;;;;;6263711;22;20152;-80
2022/09/17 12:09:43;;;;;;;4.15;1.70;;;16.20;99.90;;;;;;6264532;22;20412;-78
2022/09/17 12:12:16;;;;;;;3.45;1.05;;;16.30;99.90;;;;;;6266928;22;20012;-78
2022/09/17 12:14:49;;;;;;;2.25;0.60;;;16.30;99.90;;;;;;6260532;22;20012;-77
2022/09/17 12:17:22;;;;;;;20.98;1.45;;;16.30;99.90;;;;;;6265388;22;20000;-81
2022/09/17 12:19:55;;;;;;;2.08;0.80;;;16.30;99.90;;;;;;6264538;22;19999;-78
2022/09/17 12:22:28;;;;;;;1.38;0.80;;;16.30;99.90;;;;;;6264076;22;20007;-80
2022/09/17 12:24:54;;;;;;;7.10;1.52;;;16.30;99.90;;;;;;6259855;22;19999;-81
2022/09/17 12:27:36;;;;;;;3.80;0.80;;;16.30;99.90;;;;;;6263318;22;20023;-79
2022/09/17 12:30:08;;;;;;;;;;;16.30;99.90;;;;;;6262750;22;20003;-79
2022/09/17 12:33:09;;;;;;;1.10;0.60;;;16.20;99.90;;;;;;6264931;22;19986;-81
2022/09/17 12:35:46;;;;;;;1.15;0.60;;;16.10;99.90;;;;;;6255959;22;20691;-77
2022/09/17 12:38:46;;;;;;;1.80;1.17;;;16.00;99.90;;;;;;6254423;22;20545;-77
2022/09/17 12:41:36;;;;;;;1.80;0.68;;;16.00;99.90;;;;;;6262536;22;20081;-76
2022/09/17 12:44:20;;;;;;;2.88;0.80;;;16.00;99.90;;;;;;6259473;22;20004;-77
2022/09/17 12:47:07;;;;;;;2.35;0.93;;;15.80;99.90;;;;;;6260454;22;20014;-76
2022/09/17 12:49:45;;;;;;;2.50;0.90;;;15.70;99.90;;;;;;6257742;22;20010;-77
2022/09/17 12:52:29;;;;;;;3.17;0.82;;;15.60;99.90;;;;;;6259888;22;20042;-78
2022/09/17 12:55:11;;;;;;;2.03;0.70;;;15.60;99.90;;;;;;6256045;22;20020;-77
2022/09/17 12:57:45;;;;;;;1.08;0.93;;;15.60;99.90;;;;;;6256729;22;20000;-77
2022/09/17 13:00:15;;;;;;;0.82;0.52;;;15.50;99.90;;;;;;6259098;22;20000;-76
2022/09/17 13:03:21;;;;;;;1.90;0.90;;;15.70;99.90;;;;;;6256429;22;20090;-79
2022/09/17 13:06:17;;;;;;;1.48;0.80;;;15.70;99.90;;;;;;6257701;22;19999;-79
2022/09/17 13:08:58;;;;;;;2.40;0.80;;;15.60;99.90;;;;;;6232878;22;20007;-79
2022/09/17 13:11:53;;;;;;;2.17;0.70;;;15.60;99.90;;;;;;6263221;22;20181;-80
2022/09/17 13:14:30;;;;;;;1.88;0.80;;;15.50;99.90;;;;;;6259924;22;20099;-79
2022/09/17 13:17:20;;;;;;;3.13;1.85;;;15.30;99.90;;;;;;6260177;22;20195;-77
2022/09/17 13:19:45;;;;;;;3.72;1.20;;;15.20;99.90;;;;;;6260777;22;20008;-77